sensor_id;sensor_type;location;lat;lon;timestamp;temperature;humidity
71754;DHT22;59593;51.716;7.016;2023-08-24T00:01:43;18.10;99.90
71754;DHT22;59593;51.716;7.016;2023-08-24T00:04:08;18.10;99.90
71754;DHT22;59593;51.716;7.016;2023-08-24T00:06:34;18.10;99.90
71754;DHT22;59593;51.716;7.016;2023-08-24T00:09:00;18.10;99.90
71754;DHT22;59593;51.716;7.016;2023-08-24T00:11:25;18.10;99.90
71754;DHT22;59593;51.716;7.016;2023-08-24T00:13:51;18.00;99.90
71754;DHT22;59593;51.716;7.016;2023-08-24T00:16:18;17.90;99.90
71754;DHT22;59593;51.716;7.016;2023-08-24T00:18:47;18.00;99.90
71754;DHT22;59593;51.716;7.016;2023-08-24T00:21:16;18.00;99.90
71754;DHT22;59593;51.716;7.016;2023-08-24T00:23:50;18.00;99.90
71754;DHT22;59593;51.716;7.016;2023-08-24T00:26:16;18.00;99.90
71754;DHT22;59593;51.716;7.016;2023-08-24T00:28:45;18.00;99.90
71754;DHT22;59593;51.716;7.016;2023-08-24T00:31:15;18.00;99.90
71754;DHT22;59593;51.716;7.016;2023-08-24T00:33:41;18.00;99.90
71754;DHT22;59593;51.716;7.016;2023-08-24T00:36:07;18.00;99.90
71754;DHT22;59593;51.716;7.016;2023-08-24T00:38:32;17.90;99.90
71754;DHT22;59593;51.716;7.016;2023-08-24T00:41:01;17.90;99.90
71754;DHT22;59593;51.716;7.016;2023-08-24T00:43:28;17.90;99.90
71754;DHT22;59593;51.716;7.016;2023-08-24T00:45:59;17.90;99.90
71754;DHT22;59593;51.716;7.016;2023-08-24T00:48:28;17.80;99.90
71754;DHT22;59593;51.716;7.016;2023-08-24T00:50:57;17.80;99.90
71754;DHT22;59593;51.716;7.016;2023-08-24T00:53:29;17.60;99.90
71754;DHT22;59593;51.716;7.016;2023-08-24T00:55:55;17.60;99.90
71754;DHT22;59593;51.716;7.016;2023-08-24T00:58:21;17.60;99.90
71754;DHT22;59593;51.716;7.016;2023-08-24T01:00:56;17.60;99.90
71754;DHT22;59593;51.716;7.016;2023-08-24T01:03:23;17.60;99.90
71754;DHT22;59593;51.716;7.016;2023-08-24T01:05:49;17.60;99.90
71754;DHT22;59593;51.716;7.016;2023-08-24T01:08:15;17.50;99.90
71754;DHT22;59593;51.716;7.016;2023-08-24T01:10:52;17.50;99.90
71754;DHT22;59593;51.716;7.016;2023-08-24T01:13:43;17.50;99.90
71754;DHT22;59593;51.716;7.016;2023-08-24T01:16:20;17.50;99.90
71754;DHT22;59593;51.716;7.016;2023-08-24T01:18:55;17.50;99.90
71754;DHT22;59593;51.716;7.016;2023-08-24T01:21:21;17.60;99.90
71754;DHT22;59593;51.716;7.016;2023-08-24T01:24:17;17.50;99.90
71754;DHT22;59593;51.716;7.016;2023-08-24T01:26:44;17.40;99.90
71754;DHT22;59593;51.716;7.016;2023-08-24T01:29:11;17.40;99.90
71754;DHT22;59593;51.716;7.016;2023-08-24T01:31:37;17.40;99.90
71754;DHT22;59593;51.716;7.016;2023-08-24T01:34:03;17.30;99.90
71754;DHT22;59593;51.716;7.016;2023-08-24T01:36:28;17.40;99.90
71754;DHT22;59593;51.716;7.016;2023-08-24T01:39:25;17.40;99.90
71754;DHT22;59593;51.716;7.016;2023-08-24T01:41:55;17.30;99.90
71754;DHT22;59593;51.716;7.016;2023-08-24T01:44:22;17.30;99.90
71754;DHT22;59593;51.716;7.016;2023-08-24T01:46:52;17.30;99.90
71754;DHT22;59593;51.716;7.016;2023-08-24T01:49:18;17.20;99.90
71754;DHT22;59593;51.716;7.016;2023-08-24T01:51:45;17.10;99.90
71754;DHT22;59593;51.716;7.016;2023-08-24T01:54:12;17.20;99.90
71754;DHT22;59593;51.716;7.016;2023-08-24T01:56:38;17.20;99.90
71754;DHT22;59593;51.716;7.016;2023-08-24T01:59:03;17.20;99.90
71754;DHT22;59593;51.716;7.016;2023-08-24T02:01:32;17.20;99.90
71754;DHT22;59593;51.716;7.016;2023-08-24T02:03:57;17.20;99.90
71754;DHT22;59593;51.716;7.016;2023-08-24T02:06:24;17.30;99.90
71754;DHT22;59593;51.716;7.016;2023-08-24T02:08:50;17.20;99.90
71754;DHT22;59593;51.716;7.016;2023-08-24T02:11:15;17.20;99.90
71754;DHT22;59593;51.716;7.016;2023-08-24T02:13:41;17.20;99.90
71754;DHT22;59593;51.716;7.016;2023-08-24T02:16:08;17.10;99.90
71754;DHT22;59593;51.716;7.016;2023-08-24T02:18:37;17.10;99.90
71754;DHT22;59593;51.716;7.016;2023-08-24T02:21:10;17.10;99.90
71754;DHT22;59593;51.716;7.016;2023-08-24T02:23:40;17.10;99.90
71754;DHT22;59593;51.716;7.016;2023-08-24T02:26:06;17.00;99.90
71754;DHT22;59593;51.716;7.016;2023-08-24T02:28:32;17.00;99.90
71754;DHT22;59593;51.716;7.016;2023-08-24T02:31:02;17.00;99.90
71754;DHT22;59593;51.716;7.016;2023-08-24T02:33:29;17.00;99.90
71754;DHT22;59593;51.716;7.016;2023-08-24T02:35:55;17.00;99.90
71754;DHT22;59593;51.716;7.016;2023-08-24T02:38:22;17.00;99.90
71754;DHT22;59593;51.716;7.016;2023-08-24T02:40:48;17.00;99.90
71754;DHT22;59593;51.716;7.016;2023-08-24T02:43:16;17.00;99.90
71754;DHT22;59593;51.716;7.016;2023-08-24T02:45:41;17.00;99.90
71754;DHT22;59593;51.716;7.016;2023-08-24T02:48:07;17.00;99.90
71754;DHT22;59593;51.716;7.016;2023-08-24T02:50:35;17.10;99.90
71754;DHT22;59593;51.716;7.016;2023-08-24T02:53:01;17.10;99.90
71754;DHT22;59593;51.716;7.016;2023-08-24T02:55:27;17.10;99.90
71754;DHT22;59593;51.716;7.016;2023-08-24T02:57:52;17.10;99.90
71754;DHT22;59593;51.716;7.016;2023-08-24T03:00:18;17.20;99.90
71754;DHT22;59593;51.716;7.016;2023-08-24T03:02:44;17.20;99.90
71754;DHT22;59593;51.716;7.016;2023-08-24T03:05:09;17.30;99.90
71754;DHT22;59593;51.716;7.016;2023-08-24T03:07:35;17.30;99.90
71754;DHT22;59593;51.716;7.016;2023-08-24T03:10:01;17.30;99.90
71754;DHT22;59593;51.716;7.016;2023-08-24T03:12:26;17.30;99.90
71754;DHT22;59593;51.716;7.016;2023-08-24T03:14:52;17.30;99.90
71754;DHT22;59593;51.716;7.016;2023-08-24T03:17:21;17.40;99.90
71754;DHT22;59593;51.716;7.016;2023-08-24T03:19:46;17.40;99.90
71754;DHT22;59593;51.716;7.016;2023-08-24T03:22:13;17.40;99.90
71754;DHT22;59593;51.716;7.016;2023-08-24T03:24:39;17.40;99.90
71754;DHT22;59593;51.716;7.016;2023-08-24T03:27:05;17.30;99.90
71754;DHT22;59593;51.716;7.016;2023-08-24T03:29:33;17.30;99.90
71754;DHT22;59593;51.716;7.016;2023-08-24T03:31:59;17.30;99.90
71754;DHT22;59593;51.716;7.016;2023-08-24T03:34:25;17.30;99.90
71754;DHT22;59593;51.716;7.016;2023-08-24T03:36:53;17.40;99.90
71754;DHT22;59593;51.716;7.016;2023-08-24T03:39:18;17.40;99.90
71754;DHT22;59593;51.716;7.016;2023-08-24T03:41:44;17.40;99.90
71754;DHT22;59593;51.716;7.016;2023-08-24T03:44:10;17.30;99.90
71754;DHT22;59593;51.716;7.016;2023-08-24T03:46:36;17.30;99.90
71754;DHT22;59593;51.716;7.016;2023-08-24T03:49:01;17.30;99.90
71754;DHT22;59593;51.716;7.016;2023-08-24T03:51:28;17.30;99.90
71754;DHT22;59593;51.716;7.016;2023-08-24T03:53:53;17.40;99.90
71754;DHT22;59593;51.716;7.016;2023-08-24T03:56:21;17.40;99.90
71754;DHT22;59593;51.716;7.016;2023-08-24T03:58:47;17.50;99.90
71754;DHT22;59593;51.716;7.016;2023-08-24T04:01:12;17.50;99.90
71754;DHT22;59593;51.716;7.016;2023-08-24T04:03:38;17.50;99.90
71754;DHT22;59593;51.716;7.016;2023-08-24T04:06:04;17.50;99.90
71754;DHT22;59593;51.716;7.016;2023-08-24T04:08:30;17.60;99.90
71754;DHT22;59593;51.716;7.016;2023-08-24T04:10:55;17.60;99.90
71754;DHT22;59593;51.716;7.016;2023-08-24T04:13:21;17.50;99.90
71754;DHT22;59593;51.716;7.016;2023-08-24T04:15:48;17.50;99.90
71754;DHT22;59593;51.716;7.016;2023-08-24T04:18:14;17.50;99.90
71754;DHT22;59593;51.716;7.016;2023-08-24T04:20:39;17.50;99.90
71754;DHT22;59593;51.716;7.016;2023-08-24T04:23:09;17.50;99.90
71754;DHT22;59593;51.716;7.016;2023-08-24T04:28:55;17.50;99.90
71754;DHT22;59593;51.716;7.016;2023-08-24T04:31:21;17.60;99.90
71754;DHT22;59593;51.716;7.016;2023-08-24T04:34:00;17.50;99.90
71754;DHT22;59593;51.716;7.016;2023-08-24T04:36:29;17.40;99.90
71754;DHT22;59593;51.716;7.016;2023-08-24T04:38:56;17.40;99.90
71754;DHT22;59593;51.716;7.016;2023-08-24T04:41:47;17.20;99.90
71754;DHT22;59593;51.716;7.016;2023-08-24T04:44:13;17.10;99.90
71754;DHT22;59593;51.716;7.016;2023-08-24T04:46:41;17.20;99.90
71754;DHT22;59593;51.716;7.016;2023-08-24T04:49:08;17.20;99.90
71754;DHT22;59593;51.716;7.016;2023-08-24T04:51:34;17.20;99.90
71754;DHT22;59593;51.716;7.016;2023-08-24T04:54:00;17.20;99.90
71754;DHT22;59593;51.716;7.016;2023-08-24T04:56:26;17.20;99.90
71754;DHT22;59593;51.716;7.016;2023-08-24T04:58:55;17.30;99.90
71754;DHT22;59593;51.716;7.016;2023-08-24T05:01:27;17.30;99.90
71754;DHT22;59593;51.716;7.016;2023-08-24T06:47:34;18.70;99.90
71754;DHT22;59593;51.716;7.016;2023-08-24T06:49:59;18.80;99.90
71754;DHT22;59593;51.716;7.016;2023-08-24T06:52:25;18.90;99.90
71754;DHT22;59593;51.716;7.016;2023-08-24T06:55:00;19.00;99.90
71754;DHT22;59593;51.716;7.016;2023-08-24T06:57:26;19.10;99.90
71754;DHT22;59593;51.716;7.016;2023-08-24T06:59:54;19.20;99.90
71754;DHT22;59593;51.716;7.016;2023-08-24T07:02:20;19.40;99.90
71754;DHT22;59593;51.716;7.016;2023-08-24T07:12:32;19.70;99.90
71754;DHT22;59593;51.716;7.016;2023-08-24T07:14:57;19.80;99.90
71754;DHT22;59593;51.716;7.016;2023-08-24T07:17:26;19.80;99.90
71754;DHT22;59593;51.716;7.016;2023-08-24T07:19:51;19.90;99.90
71754;DHT22;59593;51.716;7.016;2023-08-24T07:22:17;20.00;99.90
71754;DHT22;59593;51.716;7.016;2023-08-24T07:24:43;20.10;99.90
71754;DHT22;59593;51.716;7.016;2023-08-24T07:27:09;20.10;99.90
71754;DHT22;59593;51.716;7.016;2023-08-24T07:29:35;20.30;99.90
71754;DHT22;59593;51.716;7.016;2023-08-24T07:32:00;20.40;99.90
71754;DHT22;59593;51.716;7.016;2023-08-24T07:34:26;20.50;99.90
71754;DHT22;59593;51.716;7.016;2023-08-24T07:36:54;20.60;99.90
71754;DHT22;59593;51.716;7.016;2023-08-24T07:39:19;20.60;99.90
71754;DHT22;59593;51.716;7.016;2023-08-24T07:41:45;20.70;99.90
71754;DHT22;59593;51.716;7.016;2023-08-24T07:44:11;20.90;99.90
71754;DHT22;59593;51.716;7.016;2023-08-24T07:46:38;21.00;99.90
71754;DHT22;59593;51.716;7.016;2023-08-24T07:49:04;21.10;99.90
71754;DHT22;59593;51.716;7.016;2023-08-24T07:51:33;21.20;99.90
71754;DHT22;59593;51.716;7.016;2023-08-24T07:53:59;21.30;99.90
71754;DHT22;59593;51.716;7.016;2023-08-24T07:56:24;21.40;99.90
71754;DHT22;59593;51.716;7.016;2023-08-24T07:58:50;21.50;99.90
71754;DHT22;59593;51.716;7.016;2023-08-24T08:01:16;21.50;99.90
71754;DHT22;59593;51.716;7.016;2023-08-24T08:06:17;21.80;99.90
71754;DHT22;59593;51.716;7.016;2023-08-24T08:08:42;21.80;99.90
71754;DHT22;59593;51.716;7.016;2023-08-24T08:11:10;21.90;99.90
71754;DHT22;59593;51.716;7.016;2023-08-24T08:13:35;22.00;99.90
71754;DHT22;59593;51.716;7.016;2023-08-24T08:16:05;22.00;99.90
71754;DHT22;59593;51.716;7.016;2023-08-24T08:18:33;22.20;99.90
71754;DHT22;59593;51.716;7.016;2023-08-24T08:20:58;22.20;99.90
71754;DHT22;59593;51.716;7.016;2023-08-24T08:23:26;22.30;99.90
71754;DHT22;59593;51.716;7.016;2023-08-24T08:25:52;22.60;99.90
71754;DHT22;59593;51.716;7.016;2023-08-24T08:28:18;22.60;99.90
71754;DHT22;59593;51.716;7.016;2023-08-24T08:30:45;22.80;99.90
71754;DHT22;59593;51.716;7.016;2023-08-24T08:33:12;22.80;99.90
71754;DHT22;59593;51.716;7.016;2023-08-24T08:35:38;23.00;99.90
71754;DHT22;59593;51.716;7.016;2023-08-24T08:38:06;23.10;99.90
71754;DHT22;59593;51.716;7.016;2023-08-24T08:40:36;23.10;99.90
71754;DHT22;59593;51.716;7.016;2023-08-24T08:43:06;23.20;99.90
71754;DHT22;59593;51.716;7.016;2023-08-24T08:45:35;23.40;99.90
71754;DHT22;59593;51.716;7.016;2023-08-24T08:48:01;23.40;99.90
71754;DHT22;59593;51.716;7.016;2023-08-24T08:50:29;23.50;99.90
71754;DHT22;59593;51.716;7.016;2023-08-24T08:52:55;23.60;99.90
71754;DHT22;59593;51.716;7.016;2023-08-24T08:55:22;23.70;99.90
71754;DHT22;59593;51.716;7.016;2023-08-24T08:57:48;23.60;99.90
71754;DHT22;59593;51.716;7.016;2023-08-24T09:00:17;24.00;99.90
71754;DHT22;59593;51.716;7.016;2023-08-24T09:02:46;23.90;99.90
71754;DHT22;59593;51.716;7.016;2023-08-24T09:05:16;24.00;99.90
71754;DHT22;59593;51.716;7.016;2023-08-24T09:07:42;24.20;99.90
71754;DHT22;59593;51.716;7.016;2023-08-24T09:10:08;24.40;99.90
71754;DHT22;59593;51.716;7.016;2023-08-24T09:12:34;24.50;99.90
71754;DHT22;59593;51.716;7.016;2023-08-24T09:15:11;24.40;99.90
71754;DHT22;59593;51.716;7.016;2023-08-24T09:17:42;24.50;99.90
71754;DHT22;59593;51.716;7.016;2023-08-24T09:20:08;24.70;99.90
71754;DHT22;59593;51.716;7.016;2023-08-24T09:22:36;25.00;99.90
71754;DHT22;59593;51.716;7.016;2023-08-24T09:25:04;25.10;99.90
71754;DHT22;59593;51.716;7.016;2023-08-24T09:27:34;25.10;99.90
71754;DHT22;59593;51.716;7.016;2023-08-24T09:30:00;25.10;99.90
71754;DHT22;59593;51.716;7.016;2023-08-24T09:32:30;24.90;99.90
71754;DHT22;59593;51.716;7.016;2023-08-24T09:35:03;24.90;99.90
71754;DHT22;59593;51.716;7.016;2023-08-24T09:37:33;25.20;99.90
71754;DHT22;59593;51.716;7.016;2023-08-24T09:40:08;25.30;99.90
71754;DHT22;59593;51.716;7.016;2023-08-24T09:42:43;25.60;99.90
71754;DHT22;59593;51.716;7.016;2023-08-24T09:45:11;25.70;99.90
71754;DHT22;59593;51.716;7.016;2023-08-24T09:47:38;25.70;99.90
71754;DHT22;59593;51.716;7.016;2023-08-24T09:50:04;25.90;99.90
71754;DHT22;59593;51.716;7.016;2023-08-24T09:52:33;26.10;99.90
71754;DHT22;59593;51.716;7.016;2023-08-24T09:55:09;26.10;99.90
71754;DHT22;59593;51.716;7.016;2023-08-24T09:57:37;26.20;99.90
71754;DHT22;59593;51.716;7.016;2023-08-24T10:00:08;26.50;99.90
71754;DHT22;59593;51.716;7.016;2023-08-24T10:02:50;26.50;99.90
71754;DHT22;59593;51.716;7.016;2023-08-24T10:05:20;26.80;99.90
71754;DHT22;59593;51.716;7.016;2023-08-24T10:07:53;26.50;99.90
71754;DHT22;59593;51.716;7.016;2023-08-24T10:10:25;26.50;99.90
71754;DHT22;59593;51.716;7.016;2023-08-24T10:12:53;26.50;99.90
71754;DHT22;59593;51.716;7.016;2023-08-24T10:15:24;26.70;99.90
71754;DHT22;59593;51.716;7.016;2023-08-24T10:17:53;26.90;99.90
71754;DHT22;59593;51.716;7.016;2023-08-24T10:20:20;27.20;99.90
71754;DHT22;59593;51.716;7.016;2023-08-24T10:22:47;27.40;99.90
71754;DHT22;59593;51.716;7.016;2023-08-24T10:25:15;27.20;99.90
71754;DHT22;59593;51.716;7.016;2023-08-24T10:27:42;27.40;99.90
71754;DHT22;59593;51.716;7.016;2023-08-24T10:30:13;27.50;99.90
71754;DHT22;59593;51.716;7.016;2023-08-24T10:32:40;27.60;99.90
71754;DHT22;59593;51.716;7.016;2023-08-24T10:35:14;27.40;99.90
71754;DHT22;59593;51.716;7.016;2023-08-24T10:37:41;27.80;99.90
71754;DHT22;59593;51.716;7.016;2023-08-24T10:40:10;27.70;99.90
71754;DHT22;59593;51.716;7.016;2023-08-24T10:42:46;27.60;99.90
71754;DHT22;59593;51.716;7.016;2023-08-24T10:45:15;27.60;99.90
71754;DHT22;59593;51.716;7.016;2023-08-24T10:47:45;27.50;99.90
71754;DHT22;59593;51.716;7.016;2023-08-24T10:50:14;27.30;99.90
71754;DHT22;59593;51.716;7.016;2023-08-24T10:52:43;27.60;99.90
71754;DHT22;59593;51.716;7.016;2023-08-24T10:55:26;28.00;99.90
71754;DHT22;59593;51.716;7.016;2023-08-24T10:57:59;28.00;99.90
71754;DHT22;59593;51.716;7.016;2023-08-24T11:00:28;27.60;99.90
71754;DHT22;59593;51.716;7.016;2023-08-24T11:02:57;27.70;99.90
71754;DHT22;59593;51.716;7.016;2023-08-24T11:05:30;28.10;99.90
71754;DHT22;59593;51.716;7.016;2023-08-24T11:08:05;27.60;99.90
71754;DHT22;59593;51.716;7.016;2023-08-24T11:13:13;28.30;99.90
71754;DHT22;59593;51.716;7.016;2023-08-24T11:15:43;28.40;99.90
71754;DHT22;59593;51.716;7.016;2023-08-24T11:18:25;28.20;99.90
71754;DHT22;59593;51.716;7.016;2023-08-24T11:20:59;27.80;99.90
71754;DHT22;59593;51.716;7.016;2023-08-24T11:23:25;28.00;99.90
71754;DHT22;59593;51.716;7.016;2023-08-24T11:25:53;27.90;99.90
71754;DHT22;59593;51.716;7.016;2023-08-24T11:28:24;27.80;99.90
71754;DHT22;59593;51.716;7.016;2023-08-24T11:30:53;27.70;99.90
71754;DHT22;59593;51.716;7.016;2023-08-24T11:33:33;27.80;99.90
71754;DHT22;59593;51.716;7.016;2023-08-24T11:36:00;27.50;99.90
71754;DHT22;59593;51.716;7.016;2023-08-24T11:38:39;27.40;99.90
71754;DHT22;59593;51.716;7.016;2023-08-24T11:41:15;27.30;99.90
71754;DHT22;59593;51.716;7.016;2023-08-24T11:43:45;27.10;99.90
71754;DHT22;59593;51.716;7.016;2023-08-24T11:46:12;27.20;99.90
71754;DHT22;59593;51.716;7.016;2023-08-24T11:48:39;27.30;99.90
71754;DHT22;59593;51.716;7.016;2023-08-24T11:51:08;27.10;99.90
71754;DHT22;59593;51.716;7.016;2023-08-24T11:53:41;27.10;99.90
71754;DHT22;59593;51.716;7.016;2023-08-24T11:56:13;27.10;99.90
71754;DHT22;59593;51.716;7.016;2023-08-24T11:58:47;26.90;99.90
71754;DHT22;59593;51.716;7.016;2023-08-24T12:01:12;26.80;99.90
71754;DHT22;59593;51.716;7.016;2023-08-24T12:03:38;26.60;99.90
71754;DHT22;59593;51.716;7.016;2023-08-24T12:06:15;26.60;99.90
71754;DHT22;59593;51.716;7.016;2023-08-24T12:08:48;26.60;99.90
71754;DHT22;59593;51.716;7.016;2023-08-24T12:11:18;26.50;99.90
71754;DHT22;59593;51.716;7.016;2023-08-24T12:13:46;26.70;99.90
71754;DHT22;59593;51.716;7.016;2023-08-24T12:16:13;26.90;99.90
71754;DHT22;59593;51.716;7.016;2023-08-24T12:18:54;27.20;99.90
71754;DHT22;59593;51.716;7.016;2023-08-24T12:21:21;27.40;99.90
71754;DHT22;59593;51.716;7.016;2023-08-24T12:24:00;27.50;99.90
71754;DHT22;59593;51.716;7.016;2023-08-24T12:26:27;27.50;99.90
71754;DHT22;59593;51.716;7.016;2023-08-24T12:28:55;27.40;99.90
71754;DHT22;59593;51.716;7.016;2023-08-24T12:31:24;27.60;99.90
71754;DHT22;59593;51.716;7.016;2023-08-24T12:34:06;27.90;99.90
71754;DHT22;59593;51.716;7.016;2023-08-24T12:36:36;27.80;99.90
71754;DHT22;59593;51.716;7.016;2023-08-24T12:39:02;27.80;99.90
71754;DHT22;59593;51.716;7.016;2023-08-24T12:41:30;27.80;99.90
71754;DHT22;59593;51.716;7.016;2023-08-24T12:43:55;28.00;99.90
71754;DHT22;59593;51.716;7.016;2023-08-24T12:46:21;27.90;99.90
71754;DHT22;59593;51.716;7.016;2023-08-24T12:48:47;27.90;99.90
71754;DHT22;59593;51.716;7.016;2023-08-24T12:51:13;27.80;99.90
71754;DHT22;59593;51.716;7.016;2023-08-24T12:53:38;27.90;99.90
71754;DHT22;59593;51.716;7.016;2023-08-24T12:56:06;27.80;99.90
71754;DHT22;59593;51.716;7.016;2023-08-24T12:58:32;27.50;99.90
71754;DHT22;59593;51.716;7.016;2023-08-24T13:00:59;27.30;99.90
71754;DHT22;59593;51.716;7.016;2023-08-24T13:03:25;27.10;99.90
71754;DHT22;59593;51.716;7.016;2023-08-24T13:05:51;26.80;99.90
71754;DHT22;59593;51.716;7.016;2023-08-24T13:08:16;26.60;99.90
71754;DHT22;59593;51.716;7.016;2023-08-24T13:10:42;26.60;99.90
71754;DHT22;59593;51.716;7.016;2023-08-24T13:13:08;26.50;99.90
71754;DHT22;59593;51.716;7.016;2023-08-24T13:15:33;26.40;99.90
71754;DHT22;59593;51.716;7.016;2023-08-24T13:18:02;26.40;99.90
71754;DHT22;59593;51.716;7.016;2023-08-24T13:20:29;26.50;99.90
71754;DHT22;59593;51.716;7.016;2023-08-24T13:22:54;26.40;99.90
71754;DHT22;59593;51.716;7.016;2023-08-24T13:25:20;26.60;99.90
71754;DHT22;59593;51.716;7.016;2023-08-24T13:27:45;26.60;99.90
71754;DHT22;59593;51.716;7.016;2023-08-24T13:30:11;26.50;99.90
71754;DHT22;59593;51.716;7.016;2023-08-24T13:32:37;26.40;99.90
71754;DHT22;59593;51.716;7.016;2023-08-24T13:35:04;26.30;99.90
71754;DHT22;59593;51.716;7.016;2023-08-24T13:37:30;26.30;99.90
71754;DHT22;59593;51.716;7.016;2023-08-24T13:39:55;26.30;99.90
71754;DHT22;59593;51.716;7.016;2023-08-24T13:42:25;26.40;99.90
71754;DHT22;59593;51.716;7.016;2023-08-24T13:44:51;26.50;99.90
71754;DHT22;59593;51.716;7.016;2023-08-24T13:47:16;26.50;99.90
71754;DHT22;59593;51.716;7.016;2023-08-24T13:49:44;26.60;99.90
71754;DHT22;59593;51.716;7.016;2023-08-24T13:52:10;26.60;99.90
71754;DHT22;59593;51.716;7.016;2023-08-24T13:54:36;26.40;99.90
71754;DHT22;59593;51.716;7.016;2023-08-24T13:57:02;26.40;99.90
71754;DHT22;59593;51.716;7.016;2023-08-24T13:59:27;26.30;99.90
71754;DHT22;59593;51.716;7.016;2023-08-24T14:01:53;26.20;99.90
71754;DHT22;59593;51.716;7.016;2023-08-24T14:04:19;26.20;99.90
71754;DHT22;59593;51.716;7.016;2023-08-24T14:06:45;26.20;99.90
71754;DHT22;59593;51.716;7.016;2023-08-24T14:09:11;26.20;99.90
71754;DHT22;59593;51.716;7.016;2023-08-24T14:11:37;26.20;99.90
71754;DHT22;59593;51.716;7.016;2023-08-24T14:14:02;26.20;99.90
71754;DHT22;59593;51.716;7.016;2023-08-24T14:16:30;26.10;99.90
71754;DHT22;59593;51.716;7.016;2023-08-24T14:19:02;26.10;99.90
71754;DHT22;59593;51.716;7.016;2023-08-24T14:21:31;26.10;99.90
71754;DHT22;59593;51.716;7.016;2023-08-24T14:23:59;26.10;99.90
71754;DHT22;59593;51.716;7.016;2023-08-24T14:26:25;26.20;99.90
71754;DHT22;59593;51.716;7.016;2023-08-24T14:28:58;26.10;99.90
71754;DHT22;59593;51.716;7.016;2023-08-24T14:31:28;26.10;99.90
71754;DHT22;59593;51.716;7.016;2023-08-24T14:33:57;26.00;99.90
71754;DHT22;59593;51.716;7.016;2023-08-24T14:36:23;25.90;99.90
71754;DHT22;59593;51.716;7.016;2023-08-24T14:38:49;25.80;99.90
71754;DHT22;59593;51.716;7.016;2023-08-24T14:41:17;25.60;99.90
71754;DHT22;59593;51.716;7.016;2023-08-24T14:43:42;25.60;99.90
71754;DHT22;59593;51.716;7.016;2023-08-24T14:46:11;25.60;99.90
71754;DHT22;59593;51.716;7.016;2023-08-24T14:48:36;25.60;99.90
71754;DHT22;59593;51.716;7.016;2023-08-24T14:51:02;25.50;99.90
71754;DHT22;59593;51.716;7.016;2023-08-24T14:53:28;25.50;99.90
71754;DHT22;59593;51.716;7.016;2023-08-24T14:55:58;25.40;99.90
71754;DHT22;59593;51.716;7.016;2023-08-24T14:58:25;25.50;99.90
71754;DHT22;59593;51.716;7.016;2023-08-24T15:01:01;25.50;99.90
71754;DHT22;59593;51.716;7.016;2023-08-24T15:03:27;25.40;99.90
71754;DHT22;59593;51.716;7.016;2023-08-24T15:21:27;25.50;99.90
71754;DHT22;59593;51.716;7.016;2023-08-24T15:23:57;25.50;99.90
71754;DHT22;59593;51.716;7.016;2023-08-24T15:26:25;25.40;99.90
71754;DHT22;59593;51.716;7.016;2023-08-24T15:46:09;25.10;99.90
71754;DHT22;59593;51.716;7.016;2023-08-24T15:49:04;25.10;99.90
71754;DHT22;59593;51.716;7.016;2023-08-24T15:51:29;25.20;99.90
71754;DHT22;59593;51.716;7.016;2023-08-24T15:53:58;25.10;99.90
71754;DHT22;59593;51.716;7.016;2023-08-24T15:59:51;25.00;99.90
71754;DHT22;59593;51.716;7.016;2023-08-24T16:02:20;24.90;99.90
71754;DHT22;59593;51.716;7.016;2023-08-24T16:15:07;24.50;99.90
71754;DHT22;59593;51.716;7.016;2023-08-24T16:17:33;24.40;99.90
71754;DHT22;59593;51.716;7.016;2023-08-24T16:19:58;24.40;99.90
71754;DHT22;59593;51.716;7.016;2023-08-24T16:22:24;24.40;99.90
71754;DHT22;59593;51.716;7.016;2023-08-24T16:24:50;24.30;99.90
71754;DHT22;59593;51.716;7.016;2023-08-24T16:27:17;24.10;99.90
71754;DHT22;59593;51.716;7.016;2023-08-24T16:29:43;24.10;99.90
71754;DHT22;59593;51.716;7.016;2023-08-24T16:32:09;24.00;99.90
71754;DHT22;59593;51.716;7.016;2023-08-24T16:34:34;24.00;99.90
71754;DHT22;59593;51.716;7.016;2023-08-24T16:37:00;24.10;99.90
71754;DHT22;59593;51.716;7.016;2023-08-24T16:39:27;24.10;99.90
71754;DHT22;59593;51.716;7.016;2023-08-24T16:41:55;24.10;99.90
71754;DHT22;59593;51.716;7.016;2023-08-24T16:44:20;24.10;99.90
71754;DHT22;59593;51.716;7.016;2023-08-24T16:46:46;24.00;99.90
71754;DHT22;59593;51.716;7.016;2023-08-24T16:49:14;24.00;99.90
71754;DHT22;59593;51.716;7.016;2023-08-24T16:52:03;24.00;99.90
71754;DHT22;59593;51.716;7.016;2023-08-24T16:54:34;24.00;99.90
71754;DHT22;59593;51.716;7.016;2023-08-24T16:57:00;24.00;99.90
71754;DHT22;59593;51.716;7.016;2023-08-24T16:59:25;23.90;99.90
71754;DHT22;59593;51.716;7.016;2023-08-24T17:01:51;23.90;99.90
71754;DHT22;59593;51.716;7.016;2023-08-24T17:36:18;23.80;99.90
71754;DHT22;59593;51.716;7.016;2023-08-24T17:38:46;23.70;99.90
71754;DHT22;59593;51.716;7.016;2023-08-24T17:41:12;23.60;99.90
71754;DHT22;59593;51.716;7.016;2023-08-24T17:43:38;23.50;99.90
71754;DHT22;59593;51.716;7.016;2023-08-24T17:46:06;23.40;99.90
71754;DHT22;59593;51.716;7.016;2023-08-24T17:48:39;23.30;99.90
71754;DHT22;59593;51.716;7.016;2023-08-24T17:51:05;23.30;99.90
71754;DHT22;59593;51.716;7.016;2023-08-24T17:53:41;23.20;99.90
71754;DHT22;59593;51.716;7.016;2023-08-24T18:02:46;23.40;99.90
71754;DHT22;59593;51.716;7.016;2023-08-24T22:36:59;20.50;99.90
71754;DHT22;59593;51.716;7.016;2023-08-24T22:39:33;20.50;99.90
71754;DHT22;59593;51.716;7.016;2023-08-24T22:48:56;20.60;99.90
